Time;durP1;ratioP1;P1;durP2;ratioP2;P2;SDS_P1;SDS_P2;PMS_P1;PMS_P2;Temp;Humidity;BMP_temperature;BMP_pressure;BME280_temperature;BME280_humidity;BME280_pressure;Samples;Min_cycle;Max_cycle;Signal;HPM_P1;HPM_P2
2021/12/31 00:01:01;;;;;;;1.63;0.93;;;9.20;81.50;;;;;;5156253;27;20096;-52
2021/12/31 00:03:26;;;;;;;0.95;0.85;;;9.20;81.50;;;;;;5166822;27;20104;-59
2021/12/31 00:05:52;;;;;;;2.53;1.10;;;9.20;81.50;;;;;;5138924;27;20043;-50
2021/12/31 00:08:18;;;;;;;1.55;1.08;;;9.20;81.60;;;;;;5161350;27;20038;-52
2021/12/31 00:10:44;;;;;;;2.15;1.02;;;9.20;81.60;;;;;;5176307;27;20050;-51
2021/12/31 00:13:10;;;;;;;1.98;1.30;;;9.20;81.50;;;;;;5158026;27;20053;-54
2021/12/31 00:15:36;;;;;;;1.70;1.10;;;9.20;81.60;;;;;;5177376;27;20048;-53
2021/12/31 00:18:02;;;;;;;2.10;1.02;;;9.20;81.60;;;;;;5177084;27;20143;-57
2021/12/31 00:20:28;;;;;;;3.05;1.27;;;9.20;81.50;;;;;;5176526;27;20095;-54
2021/12/31 00:23:02;;;;;;;2.92;1.40;;;9.20;81.60;;;;;;5176883;27;20042;-53
2021/12/31 00:25:29;;;;;;;2.60;1.15;;;9.20;81.60;;;;;;5176010;27;20050;-54
2021/12/31 00:27:55;;;;;;;1.75;1.30;;;9.20;81.60;;;;;;5176407;27;20117;-52
2021/12/31 00:30:21;;;;;;;2.22;1.10;;;9.20;81.60;;;;;;5143036;27;20130;-54
2021/12/31 00:32:50;;;;;;;3.40;1.20;;;9.20;81.50;;;;;;5155407;27;20034;-53
2021/12/31 00:35:16;;;;;;;4.32;1.25;;;9.20;81.60;;;;;;5155351;27;20038;-58
2021/12/31 00:37:42;;;;;;;1.80;1.33;;;9.10;81.50;;;;;;5136808;27;20563;-58
2021/12/31 00:40:11;;;;;;;2.17;0.98;;;9.20;81.60;;;;;;5136926;27;20066;-59
2021/12/31 00:42:37;;;;;;;1.30;1.13;;;9.20;81.60;;;;;;5154440;27;20057;-59
2021/12/31 00:45:07;;;;;;;2.05;0.90;;;9.20;81.60;;;;;;5155145;27;20050;-54
2021/12/31 00:47:32;;;;;;;1.77;0.93;;;9.20;81.60;;;;;;5154834;27;20042;-53
2021/12/31 00:49:58;;;;;;;1.48;1.00;;;9.20;81.60;;;;;;5155383;27;20035;-58
2021/12/31 00:52:24;;;;;;;1.60;1.25;;;9.20;81.60;;;;;;5155086;27;20439;-53
2021/12/31 00:54:50;;;;;;;1.85;0.95;;;9.20;81.60;;;;;;5155063;27;20061;-55
2021/12/31 00:57:15;;;;;;;1.75;1.00;;;9.20;81.60;;;;;;5154596;27;20546;-54
2021/12/31 00:59:41;;;;;;;2.55;1.33;;;9.30;81.60;;;;;;5154978;27;20031;-55
2021/12/31 01:02:08;;;;;;;2.55;0.95;;;9.20;81.60;;;;;;5154799;27;20042;-60
2021/12/31 01:04:34;;;;;;;1.25;1.08;;;9.30;81.60;;;;;;5154773;27;20034;-54
2021/12/31 01:07:03;;;;;;;1.00;0.90;;;9.20;81.60;;;;;;5154930;27;20144;-53
2021/12/31 01:09:30;;;;;;;1.45;1.02;;;9.30;81.70;;;;;;5155029;27;20042;-53
2021/12/31 01:11:57;;;;;;;1.23;0.98;;;9.30;81.60;;;;;;5154888;27;20026;-54
2021/12/31 01:14:37;;;;;;;1.55;0.88;;;9.30;81.70;;;;;;5154357;27;20069;-56
2021/12/31 01:17:07;;;;;;;1.05;0.90;;;9.30;81.60;;;;;;5154558;27;20122;-58
2021/12/31 01:19:46;;;;;;;1.38;0.93;;;9.30;81.70;;;;;;5154828;27;20263;-60
2021/12/31 01:22:26;;;;;;;1.58;0.85;;;9.30;81.70;;;;;;5154508;27;20046;-47
2021/12/31 01:24:52;;;;;;;2.17;1.17;;;9.30;81.70;;;;;;5154492;27;20051;-61
2021/12/31 01:27:18;;;;;;;1.42;0.90;;;9.30;81.70;;;;;;5154518;27;20038;-62
2021/12/31 01:29:44;;;;;;;2.67;1.20;;;9.30;81.60;;;;;;5153881;27;20050;-54
2021/12/31 01:32:10;;;;;;;1.00;0.90;;;9.30;81.70;;;;;;5154579;27;20509;-59
2021/12/31 01:34:37;;;;;;;2.13;1.20;;;9.30;81.70;;;;;;5154399;27;20038;-57
2021/12/31 01:37:04;;;;;;;1.65;1.00;;;9.30;81.70;;;;;;5154255;27;20043;-50
2021/12/31 01:39:29;;;;;;;2.17;1.13;;;9.30;81.70;;;;;;5154123;27;20537;-62
2021/12/31 01:41:58;;;;;;;2.15;1.35;;;9.30;81.70;;;;;;5154348;27;20047;-57
2021/12/31 01:44:36;;;;;;;1.75;1.20;;;9.30;81.70;;;;;;5141477;27;20369;-55
2021/12/31 01:47:09;;;;;;;1.23;1.00;;;9.30;81.70;;;;;;5174528;27;20067;-55
2021/12/31 01:49:37;;;;;;;0.90;0.80;;;9.30;81.70;;;;;;5173398;27;20050;-59
2021/12/31 01:52:05;;;;;;;3.70;1.80;;;9.30;81.70;;;;;;5175174;27;20099;-62
2021/12/31 01:54:31;;;;;;;1.73;1.02;;;9.30;81.70;;;;;;5174211;27;20048;-58
2021/12/31 01:57:00;;;;;;;1.40;0.98;;;9.30;81.70;;;;;;5175157;27;20043;-60
2021/12/31 01:59:27;;;;;;;1.73;1.20;;;9.30;81.70;;;;;;5174763;27;20038;-59
2021/12/31 02:01:55;;;;;;;1.77;0.88;;;9.30;81.70;;;;;;5174241;27;20093;-62
2021/12/31 02:04:20;;;;;;;2.17;0.90;;;9.30;81.70;;;;;;5175032;27;20034;-54
2021/12/31 02:06:46;;;;;;;1.17;0.85;;;9.30;81.70;;;;;;5175094;27;20035;-62
2021/12/31 02:09:13;;;;;;;1.88;1.20;;;9.30;81.70;;;;;;5155738;27;20054;-59
2021/12/31 02:11:39;;;;;;;2.03;1.20;;;9.30;81.70;;;;;;5155635;27;20050;-54
2021/12/31 02:14:05;;;;;;;2.22;1.10;;;9.30;81.70;;;;;;5174741;27;20038;-62
2021/12/31 02:16:31;;;;;;;1.63;1.02;;;9.30;81.70;;;;;;5174640;27;20496;-63
2021/12/31 02:18:58;;;;;;;2.85;1.40;;;9.30;82.30;;;;;;5174794;27;20045;-58
2021/12/31 02:21:24;;;;;;;1.42;0.75;;;9.20;81.60;;;;;;5175242;27;20434;-60
2021/12/31 02:23:55;;;;;;;2.20;0.90;;;9.30;81.70;;;;;;5163589;27;20430;-55
2021/12/31 02:26:21;;;;;;;1.60;1.15;;;9.30;81.70;;;;;;5153735;27;20482;-53
2021/12/31 02:28:47;;;;;;;2.50;1.10;;;9.30;81.70;;;;;;5153212;27;20090;-51
2021/12/31 02:31:13;;;;;;;1.77;1.17;;;9.30;81.70;;;;;;5153599;27;20039;-60
2021/12/31 02:33:39;;;;;;;1.58;0.98;;;9.30;81.70;;;;;;5153145;27;20039;-62
2021/12/31 02:36:07;;;;;;;2.30;1.58;;;9.30;81.70;;;;;;5153480;27;20045;-57
2021/12/31 02:38:33;;;;;;;1.77;1.10;;;9.30;81.70;;;;;;5153602;27;20050;-60
2021/12/31 02:40:59;;;;;;;1.25;1.10;;;9.40;81.70;;;;;;5153254;27;20051;-61
2021/12/31 02:43:25;;;;;;;1.33;0.90;;;9.40;81.70;;;;;;5153402;27;20078;-61
2021/12/31 02:45:50;;;;;;;1.33;1.02;;;9.40;81.80;;;;;;5153544;27;20039;-57
2021/12/31 02:48:24;;;;;;;3.10;1.10;;;9.40;81.70;;;;;;5153347;27;20482;-57
2021/12/31 02:50:53;;;;;;;2.92;1.02;;;9.40;81.70;;;;;;5153044;27;20043;-62
2021/12/31 02:53:41;;;;;;;1.42;0.88;;;9.40;81.70;;;;;;5153478;27;20043;-59
2021/12/31 02:56:10;;;;;;;2.72;1.13;;;9.40;81.70;;;;;;5152049;27;20513;-57
2021/12/31 02:58:36;;;;;;;2.35;1.05;;;9.40;81.70;;;;;;5153601;27;20917;-55
2021/12/31 03:01:04;;;;;;;1.85;1.10;;;9.40;81.70;;;;;;5153571;27;20117;-54
2021/12/31 03:03:33;;;;;;;1.10;0.98;;;9.40;81.80;;;;;;5134660;27;20095;-53
2021/12/31 03:05:59;;;;;;;2.10;1.00;;;9.40;81.70;;;;;;5154391;27;20038;-57
2021/12/31 03:08:30;;;;;;;2.78;1.55;;;9.30;81.70;;;;;;5157094;27;20074;-51
2021/12/31 03:10:58;;;;;;;2.20;1.10;;;9.40;81.80;;;;;;5156832;27;20125;-57
2021/12/31 03:13:24;;;;;;;2.35;1.02;;;9.40;81.70;;;;;;5157241;27;20038;-48
2021/12/31 03:15:52;;;;;;;2.28;1.10;;;9.40;81.80;;;;;;5156830;27;20039;-60
2021/12/31 03:18:19;;;;;;;1.42;1.10;;;9.40;81.70;;;;;;5156787;27;20447;-54
2021/12/31 03:20:57;;;;;;;2.40;1.10;;;9.40;81.80;;;;;;5156892;27;20042;-57
2021/12/31 03:23:27;;;;;;;1.23;0.82;;;9.40;81.80;;;;;;5156656;27;20390;-59
2021/12/31 03:25:53;;;;;;;1.42;0.90;;;9.40;81.80;;;;;;5156440;27;20509;-54
2021/12/31 03:28:20;;;;;;;1.95;0.93;;;9.40;81.70;;;;;;5156862;27;20049;-59
2021/12/31 03:30:47;;;;;;;1.98;1.20;;;9.40;81.80;;;;;;5156625;27;20074;-59
2021/12/31 03:33:14;;;;;;;1.08;0.98;;;9.40;81.70;;;;;;5156831;27;20042;-56
2021/12/31 03:35:40;;;;;;;3.00;1.20;;;9.40;81.80;;;;;;5156427;27;20085;-48
2021/12/31 03:38:05;;;;;;;2.22;1.10;;;9.40;81.80;;;;;;5155803;27;20081;-49
2021/12/31 03:40:31;;;;;;;1.90;1.00;;;9.50;81.80;;;;;;5156509;27;20041;-51
2021/12/31 03:42:57;;;;;;;2.28;1.27;;;9.40;81.70;;;;;;5156370;27;20078;-57
2021/12/31 03:45:23;;;;;;;2.53;1.15;;;9.50;81.80;;;;;;5152315;27;20045;-51
2021/12/31 03:47:49;;;;;;;1.98;1.30;;;9.40;81.80;;;;;;5177485;27;20034;-56
2021/12/31 03:50:14;;;;;;;1.83;1.10;;;9.40;81.70;;;;;;5177531;27;20038;-49
2021/12/31 03:52:41;;;;;;;1.73;1.08;;;9.40;81.70;;;;;;5176663;27;20042;-52
2021/12/31 03:55:08;;;;;;;2.20;1.45;;;9.40;81.70;;;;;;5176538;27;20423;-63
2021/12/31 03:57:34;;;;;;;1.70;1.15;;;9.40;81.80;;;;;;5176983;27;20478;-61
2021/12/31 04:00:00;;;;;;;1.90;1.10;;;9.40;81.80;;;;;;5177261;27;20050;-56
2021/12/31 04:02:26;;;;;;;2.80;1.08;;;9.40;81.80;;;;;;5177078;27;20374;-53
2021/12/31 04:04:52;;;;;;;2.13;0.98;;;9.40;81.70;;;;;;5176950;27;20066;-57
2021/12/31 04:07:19;;;;;;;2.70;1.05;;;9.50;81.80;;;;;;5177266;27;20385;-60
2021/12/31 04:09:45;;;;;;;2.10;1.13;;;9.50;81.80;;;;;;5176281;27;20400;-61
2021/12/31 04:12:11;;;;;;;2.22;1.10;;;9.40;81.80;;;;;;5176915;27;20109;-53
2021/12/31 04:14:36;;;;;;;1.23;1.13;;;9.50;81.80;;;;;;5177115;27;20469;-54
2021/12/31 04:17:02;;;;;;;1.92;1.20;;;9.40;81.80;;;;;;5175604;27;20385;-62
2021/12/31 04:19:28;;;;;;;1.85;1.00;;;9.40;81.80;;;;;;5176861;27;20449;-60
2021/12/31 04:21:54;;;;;;;1.58;1.08;;;9.50;81.80;;;;;;5176988;27;20121;-60
2021/12/31 04:27:04;;;;;;;2.75;1.00;;;9.50;81.80;;;;;;5176242;27;20046;-57
2021/12/31 04:29:29;;;;;;;2.58;1.20;;;9.40;81.80;;;;;;5176727;27;20058;-63
2021/12/31 04:31:55;;;;;;;1.73;1.17;;;9.50;81.80;;;;;;5176400;27;20474;-54
2021/12/31 04:34:20;;;;;;;1.45;1.15;;;9.50;81.80;;;;;;5176401;27;20081;-56
2021/12/31 04:36:47;;;;;;;1.55;1.10;;;9.50;81.80;;;;;;5176482;27;20148;-61
2021/12/31 04:39:12;;;;;;;1.95;1.00;;;9.50;81.80;;;;;;5176181;27;20129;-60
2021/12/31 04:41:38;;;;;;;2.50;1.20;;;9.50;81.80;;;;;;5175595;27;20537;-59
2021/12/31 04:44:04;;;;;;;1.77;1.13;;;9.50;81.80;;;;;;5175997;27;20130;-58
2021/12/31 04:46:30;;;;;;;0.80;0.80;;;9.50;81.80;;;;;;5176047;27;20167;-59
2021/12/31 04:48:55;;;;;;;1.08;0.90;;;9.50;81.90;;;;;;5175919;27;20045;-60
2021/12/31 04:51:21;;;;;;;1.40;0.90;;;9.50;81.80;;;;;;5176172;27;20509;-61
2021/12/31 04:53:47;;;;;;;2.25;1.35;;;9.50;81.80;;;;;;5176049;27;20088;-58
2021/12/31 04:56:12;;;;;;;1.90;1.27;;;9.50;81.90;;;;;;5175802;27;20065;-61
2021/12/31 04:58:38;;;;;;;1.52;1.00;;;9.50;81.80;;;;;;5175343;27;20393;-54
2021/12/31 05:01:04;;;;;;;2.67;1.27;;;9.50;81.90;;;;;;5175761;27;20042;-62
2021/12/31 05:03:30;;;;;;;3.20;1.20;;;9.50;81.90;;;;;;5175984;27;20057;-62
2021/12/31 05:05:55;;;;;;;1.52;0.90;;;9.50;82.50;;;;;;5175810;27;20094;-61
2021/12/31 05:08:21;;;;;;;1.70;1.00;;;9.50;81.80;;;;;;5175685;27;20066;-58
2021/12/31 05:10:46;;;;;;;2.75;1.30;;;9.50;81.80;;;;;;5175617;27;20038;-59
2021/12/31 05:13:15;;;;;;;2.05;1.23;;;9.50;81.80;;;;;;5174824;27;20508;-58
2021/12/31 05:15:47;;;;;;;2.25;1.13;;;9.50;81.90;;;;;;5175298;27;20104;-58
2021/12/31 05:18:13;;;;;;;3.03;1.27;;;9.50;81.80;;;;;;5175650;27;20044;-62
2021/12/31 05:20:39;;;;;;;1.67;1.20;;;9.50;81.90;;;;;;5175700;27;20057;-59
2021/12/31 05:23:05;;;;;;;1.38;1.15;;;9.50;81.80;;;;;;5175356;27;20034;-62
2021/12/31 05:25:31;;;;;;;2.03;0.93;;;9.50;81.80;;;;;;5175087;27;20093;-57
2021/12/31 05:27:56;;;;;;;3.00;1.27;;;9.50;81.80;;;;;;5175335;27;20042;-59
2021/12/31 05:30:22;;;;;;;1.17;1.02;;;9.50;81.80;;;;;;5155939;27;20050;-59
2021/12/31 05:32:48;;;;;;;1.60;1.20;;;9.50;81.80;;;;;;5175339;27;20034;-57
2021/12/31 05:35:15;;;;;;;1.65;1.08;;;9.50;81.90;;;;;;5155870;27;20110;-56
2021/12/31 05:37:41;;;;;;;1.98;1.10;;;9.50;81.90;;;;;;5175346;27;20068;-60
2021/12/31 05:40:07;;;;;;;2.10;0.80;;;9.60;81.90;;;;;;5175093;27;20034;-59
2021/12/31 05:42:32;;;;;;;2.15;1.02;;;9.50;81.90;;;;;;5175043;27;20042;-61
2021/12/31 05:44:58;;;;;;;1.50;1.10;;;9.60;81.90;;;;;;5174523;27;20456;-62
2021/12/31 05:47:24;;;;;;;1.55;1.00;;;9.60;81.90;;;;;;5175009;27;20037;-62
2021/12/31 05:49:50;;;;;;;0.82;0.80;;;9.50;81.90;;;;;;5175085;27;20473;-59
2021/12/31 05:52:16;;;;;;;2.65;1.00;;;9.50;81.90;;;;;;5174802;27;20042;-58
2021/12/31 05:54:43;;;;;;;1.27;0.85;;;9.60;82.60;;;;;;5174773;27;20038;-61
2021/12/31 05:57:08;;;;;;;1.33;1.10;;;9.60;81.90;;;;;;5174640;27;20129;-59
2021/12/31 05:59:34;;;;;;;1.63;0.98;;;9.60;81.90;;;;;;5174776;27;20122;-59
2021/12/31 06:02:00;;;;;;;1.45;1.27;;;9.60;82.00;;;;;;5174020;27;20087;-61
2021/12/31 06:04:25;;;;;;;2.55;1.38;;;9.60;81.90;;;;;;5175011;27;20048;-62
2021/12/31 06:06:51;;;;;;;1.10;0.90;;;9.60;82.00;;;;;;5175028;27;20084;-59
2021/12/31 06:09:17;;;;;;;1.50;1.15;;;9.60;81.90;;;;;;5174868;27;20050;-60
2021/12/31 06:11:43;;;;;;;1.63;0.98;;;9.60;81.90;;;;;;5174790;27;20373;-58
2021/12/31 06:14:11;;;;;;;5.18;1.15;;;9.60;81.90;;;;;;5174924;27;20049;-63
2021/12/31 06:16:42;;;;;;;1.02;1.00;;;9.60;81.90;;;;;;5174331;27;20224;-62
2021/12/31 06:19:10;;;;;;;1.83;1.13;;;9.60;82.00;;;;;;5174622;27;20046;-57
2021/12/31 06:21:37;;;;;;;1.92;1.20;;;9.60;81.90;;;;;;5174901;27;20042;-63
2021/12/31 06:24:03;;;;;;;1.27;0.90;;;9.60;82.00;;;;;;5174626;27;20048;-57
2021/12/31 06:26:29;;;;;;;2.45;1.40;;;9.60;82.00;;;;;;5174349;27;20069;-58
2021/12/31 06:28:55;;;;;;;1.27;1.00;;;9.60;81.90;;;;;;5175231;27;20394;-56
2021/12/31 06:31:22;;;;;;;2.38;0.88;;;9.60;81.90;;;;;;5155819;27;20030;-60
2021/12/31 06:33:47;;;;;;;2.72;1.17;;;9.60;81.90;;;;;;5174128;27;20490;-57
2021/12/31 06:36:13;;;;;;;1.33;1.08;;;9.60;81.90;;;;;;5174544;27;20117;-55
2021/12/31 06:38:39;;;;;;;1.27;0.88;;;9.60;81.90;;;;;;5155753;27;20565;-61
2021/12/31 06:41:05;;;;;;;1.63;0.90;;;9.60;81.90;;;;;;5176694;27;20083;-63
2021/12/31 06:43:30;;;;;;;2.15;1.25;;;9.60;81.90;;;;;;5159821;27;20042;-62
2021/12/31 06:45:56;;;;;;;0.70;0.70;;;9.60;81.90;;;;;;5178865;27;20045;-63
2021/12/31 06:48:22;;;;;;;1.50;1.05;;;9.70;82.00;;;;;;5178161;27;20397;-55
2021/12/31 06:50:47;;;;;;;1.42;0.90;;;9.60;81.90;;;;;;5177906;27;20042;-63
2021/12/31 06:53:13;;;;;;;1.90;1.58;;;9.60;81.90;;;;;;5178359;27;20046;-63
2021/12/31 06:55:38;;;;;;;0.90;0.85;;;9.60;81.90;;;;;;5178486;27;20038;-60
2021/12/31 06:58:04;;;;;;;1.30;1.00;;;9.70;82.00;;;;;;5178271;27;20042;-56
2021/12/31 07:00:30;;;;;;;1.08;0.82;;;9.70;82.00;;;;;;5159552;27;20089;-62
2021/12/31 07:03:06;;;;;;;0.95;0.80;;;9.60;81.90;;;;;;5178078;27;20042;-60
2021/12/31 07:05:32;;;;;;;1.38;1.00;;;9.70;82.00;;;;;;5158826;27;20171;-59
2021/12/31 07:07:58;;;;;;;2.38;1.15;;;9.70;82.00;;;;;;5177965;27;20038;-58
2021/12/31 07:10:23;;;;;;;2.05;1.10;;;9.70;82.00;;;;;;5178168;27;20038;-62
2021/12/31 07:12:49;;;;;;;1.23;0.90;;;9.70;82.00;;;;;;5178007;27;20042;-56
2021/12/31 07:15:14;;;;;;;1.55;1.35;;;9.70;82.00;;;;;;5178062;27;20125;-62
2021/12/31 07:17:41;;;;;;;1.83;0.88;;;9.70;82.00;;;;;;5177710;27;20038;-51
2021/12/31 07:20:07;;;;;;;0.90;0.80;;;9.70;82.70;;;;;;5177699;27;20379;-61
2021/12/31 07:22:36;;;;;;;1.08;0.98;;;9.70;82.00;;;;;;5177278;27;20038;-62
2021/12/31 07:25:02;;;;;;;1.10;0.85;;;9.70;82.00;;;;;;5175320;27;20115;-53
2021/12/31 07:27:31;;;;;;;2.42;1.10;;;9.70;82.00;;;;;;5167660;27;20497;-59
2021/12/31 07:29:57;;;;;;;1.15;0.98;;;9.70;82.10;;;;;;5166393;27;20089;-54
2021/12/31 07:32:23;;;;;;;1.20;0.88;;;9.70;82.10;;;;;;5166024;27;20054;-58
2021/12/31 07:34:48;;;;;;;1.58;1.20;;;9.70;82.00;;;;;;5166748;27;20116;-55
2021/12/31 07:37:14;;;;;;;1.30;0.95;;;9.70;82.00;;;;;;5170249;27;20038;-58
2021/12/31 07:39:46;;;;;;;1.40;1.05;;;9.70;82.10;;;;;;5177360;27;20042;-58
2021/12/31 07:42:12;;;;;;;2.13;1.00;;;9.70;82.00;;;;;;5177414;27;20046;-59
2021/12/31 07:44:38;;;;;;;1.20;1.10;;;9.70;82.10;;;;;;5177239;27;20051;-60
2021/12/31 07:47:04;;;;;;;1.90;1.20;;;9.70;82.00;;;;;;5158179;27;20054;-56
2021/12/31 07:49:29;;;;;;;0.80;0.80;;;9.70;82.00;;;;;;5176813;27;20121;-56
2021/12/31 07:51:55;;;;;;;1.20;0.95;;;9.70;82.00;;;;;;5177322;27;20031;-48
2021/12/31 07:54:21;;;;;;;1.00;0.85;;;9.70;82.10;;;;;;5176569;27;20476;-53
2021/12/31 07:56:47;;;;;;;1.02;0.90;;;9.70;82.10;;;;;;5177019;27;20087;-54
2021/12/31 07:59:12;;;;;;;0.65;0.65;;;9.70;82.10;;;;;;5177190;27;20112;-53
2021/12/31 08:01:38;;;;;;;0.90;0.80;;;9.70;82.00;;;;;;5176907;27;20030;-59
2021/12/31 08:04:04;;;;;;;1.73;1.00;;;9.70;82.10;;;;;;5176829;27;20107;-54
2021/12/31 08:06:29;;;;;;;1.73;1.05;;;9.70;82.10;;;;;;5176826;27;20042;-55
2021/12/31 08:08:55;;;;;;;1.17;0.80;;;9.70;82.10;;;;;;5176435;27;20038;-54
2021/12/31 08:11:21;;;;;;;1.17;0.75;;;9.70;82.10;;;;;;5177012;27;20094;-56
2021/12/31 08:13:46;;;;;;;1.27;0.90;;;9.70;82.10;;;;;;5157919;27;20095;-55
2021/12/31 08:16:12;;;;;;;1.08;1.00;;;9.70;82.00;;;;;;5176896;27;20094;-53
2021/12/31 08:18:38;;;;;;;0.85;0.77;;;9.80;82.10;;;;;;5176485;27;20121;-56
2021/12/31 08:21:06;;;;;;;1.00;0.90;;;9.70;82.10;;;;;;5176502;27;20038;-55
2021/12/31 08:23:32;;;;;;;1.00;0.90;;;9.80;82.20;;;;;;5158446;27;20041;-55
2021/12/31 08:26:01;;;;;;;1.13;0.80;;;9.70;82.10;;;;;;5175867;27;20387;-54
2021/12/31 08:28:27;;;;;;;1.10;0.80;;;9.70;82.10;;;;;;5176431;27;20038;-57
2021/12/31 08:30:53;;;;;;;2.55;1.13;;;9.70;82.00;;;;;;5176690;27;20038;-55
2021/12/31 08:33:19;;;;;;;1.00;0.90;;;9.80;82.10;;;;;;5175999;27;20046;-57
2021/12/31 08:35:45;;;;;;;1.00;0.90;;;9.80;82.10;;;;;;5176181;27;20043;-58
2021/12/31 08:38:10;;;;;;;1.45;0.95;;;9.80;82.10;;;;;;5176575;27;20087;-57
2021/12/31 08:40:36;;;;;;;0.80;0.80;;;9.80;82.10;;;;;;5176108;27;20418;-58
2021/12/31 08:43:02;;;;;;;1.73;0.90;;;9.80;82.40;;;;;;5176285;27;20095;-54
2021/12/31 08:45:29;;;;;;;0.75;0.70;;;9.80;82.10;;;;;;5176165;27;20550;-57
2021/12/31 08:47:59;;;;;;;0.82;0.82;;;9.80;82.10;;;;;;5176363;27;20050;-56
2021/12/31 08:50:26;;;;;;;1.77;0.85;;;9.80;82.10;;;;;;5175820;27;20086;-59
2021/12/31 08:52:52;;;;;;;1.02;0.80;;;9.80;82.10;;;;;;5176205;27;20042;-57
2021/12/31 08:55:17;;;;;;;0.80;0.80;;;9.80;82.10;;;;;;5157145;27;20064;-60
2021/12/31 08:57:43;;;;;;;1.23;1.00;;;9.80;82.10;;;;;;5175268;27;20042;-56
2021/12/31 09:00:12;;;;;;;1.10;0.80;;;9.80;82.10;;;;;;5175763;27;20042;-56
2021/12/31 09:02:42;;;;;;;1.27;0.90;;;9.80;82.10;;;;;;5175785;27;20125;-59
2021/12/31 09:05:11;;;;;;;0.73;0.73;;;9.80;82.10;;;;;;5175289;27;20038;-58
2021/12/31 09:07:37;;;;;;;1.20;1.00;;;9.80;82.20;;;;;;5175778;27;20125;-60
2021/12/31 09:10:04;;;;;;;0.88;0.63;;;9.80;82.10;;;;;;5157011;27;20458;-53
2021/12/31 09:12:30;;;;;;;0.77;0.70;;;9.80;82.10;;;;;;5175280;27;20042;-55
2021/12/31 09:14:56;;;;;;;0.70;0.70;;;9.80;82.10;;;;;;5155344;27;20049;-57
2021/12/31 09:17:22;;;;;;;1.35;0.85;;;9.80;82.10;;;;;;5175312;27;20042;-58
2021/12/31 09:19:49;;;;;;;0.70;0.70;;;9.90;82.20;;;;;;5175653;27;20038;-58
2021/12/31 09:22:15;;;;;;;0.70;0.70;;;9.80;82.10;;;;;;5175661;27;20054;-58
2021/12/31 09:24:45;;;;;;;1.50;1.02;;;9.80;82.10;;;;;;5157164;27;20049;-56
2021/12/31 09:27:11;;;;;;;1.98;0.90;;;9.90;82.50;;;;;;5175087;27;20042;-54
2021/12/31 09:29:37;;;;;;;3.53;1.30;;;9.80;82.80;;;;;;5174541;27;20504;-56
2021/12/31 09:32:03;;;;;;;2.72;1.50;;;9.90;82.90;;;;;;5175571;27;20046;-56
2021/12/31 09:34:28;;;;;;;2.25;1.42;;;9.90;83.00;;;;;;5175204;27;20035;-56
2021/12/31 09:36:54;;;;;;;1.58;1.20;;;9.90;83.00;;;;;;5175273;27;20046;-57
2021/12/31 09:39:23;;;;;;;2.42;1.55;;;9.90;83.00;;;;;;5175221;27;20114;-56
2021/12/31 09:41:51;;;;;;;1.75;1.40;;;10.00;83.10;;;;;;5175113;27;20375;-57
2021/12/31 09:44:20;;;;;;;2.72;1.42;;;9.90;83.10;;;;;;5174512;27;20083;-56
2021/12/31 09:46:46;;;;;;;2.60;1.55;;;10.00;83.10;;;;;;5174454;27;20439;-57
2021/12/31 09:49:12;;;;;;;2.42;1.70;;;10.00;83.20;;;;;;5175174;27;20178;-56
2021/12/31 09:51:42;;;;;;;2.50;1.70;;;9.90;83.10;;;;;;5174529;27;20030;-58
2021/12/31 09:54:09;;;;;;;2.67;1.33;;;10.00;83.30;;;;;;5175013;27;20393;-57
2021/12/31 09:56:39;;;;;;;2.05;1.48;;;10.10;83.30;;;;;;5165597;27;20424;-56
2021/12/31 09:59:05;;;;;;;4.47;1.95;;;10.00;83.20;;;;;;5141636;27;20499;-58
2021/12/31 10:01:32;;;;;;;2.25;1.70;;;10.00;83.90;;;;;;5163104;27;20030;-56
2021/12/31 10:04:00;;;;;;;2.05;1.73;;;10.00;83.30;;;;;;5164688;27;20102;-56
2021/12/31 10:06:26;;;;;;;3.20;1.60;;;10.00;83.30;;;;;;5162994;27;20046;-56
2021/12/31 10:08:57;;;;;;;2.45;1.70;;;10.00;83.30;;;;;;5138820;27;20043;-57
2021/12/31 10:11:24;;;;;;;2.92;1.77;;;10.00;83.30;;;;;;5156497;27;20054;-57
2021/12/31 10:13:55;;;;;;;2.47;1.83;;;10.00;83.40;;;;;;5166941;27;20030;-56
2021/12/31 10:16:25;;;;;;;3.33;2.00;;;10.10;83.50;;;;;;5159918;27;20528;-57
2021/12/31 10:19:05;;;;;;;2.47;1.60;;;10.00;83.40;;;;;;5160385;27;20035;-54
2021/12/31 10:21:41;;;;;;;2.78;1.83;;;10.00;83.40;;;;;;5162780;27;20492;-55
2021/12/31 10:24:36;;;;;;;2.55;1.77;;;10.00;83.70;;;;;;5160767;27;20039;-57
2021/12/31 10:27:14;;;;;;;5.03;2.28;;;10.00;83.50;;;;;;5120955;28;20380;-56
2021/12/31 10:30:11;;;;;;;3.75;2.33;;;10.00;83.50;;;;;;5123183;28;20093;-57
2021/12/31 10:32:40;;;;;;;3.78;2.47;;;10.00;83.60;;;;;;5122315;28;20114;-56
2021/12/31 10:35:10;;;;;;;2.72;2.20;;;10.00;83.60;;;;;;5120812;28;20341;-55
2021/12/31 10:37:44;;;;;;;3.88;2.25;;;10.00;83.60;;;;;;5130279;28;20070;-56
2021/12/31 10:40:10;;;;;;;3.17;2.35;;;10.00;83.60;;;;;;5132872;28;20483;-57
2021/12/31 10:42:37;;;;;;;4.78;2.28;;;10.00;83.60;;;;;;5133206;28;20065;-55
2021/12/31 10:45:04;;;;;;;3.75;2.83;;;10.00;83.60;;;;;;5133195;28;20035;-57
2021/12/31 10:47:34;;;;;;;4.53;2.28;;;10.00;83.70;;;;;;5132825;28;20499;-55
2021/12/31 10:50:03;;;;;;;2.92;2.30;;;10.00;83.70;;;;;;5132766;28;20085;-56
2021/12/31 10:52:39;;;;;;;3.83;2.38;;;10.00;83.70;;;;;;5132795;28;20054;-57
2021/12/31 10:55:29;;;;;;;4.25;2.30;;;10.00;83.60;;;;;;5114441;28;20072;-57
2021/12/31 10:57:58;;;;;;;3.58;2.10;;;10.00;83.70;;;;;;5132647;28;20476;-57
2021/12/31 11:00:27;;;;;;;2.72;2.08;;;10.00;83.70;;;;;;5132920;28;20102;-56
2021/12/31 11:02:53;;;;;;;5.07;2.50;;;10.00;83.80;;;;;;5132666;28;20035;-59
2021/12/31 11:05:23;;;;;;;3.95;2.50;;;10.00;83.70;;;;;;5132378;28;20047;-56
2021/12/31 11:07:49;;;;;;;3.38;2.53;;;10.00;83.80;;;;;;5132357;28;20035;-56
2021/12/31 11:10:16;;;;;;;3.72;2.60;;;10.00;83.80;;;;;;5126015;28;20031;-58
2021/12/31 11:12:48;;;;;;;4.05;2.28;;;10.10;83.90;;;;;;5121546;28;20047;-56
2021/12/31 11:15:15;;;;;;;4.00;2.50;;;10.00;83.80;;;;;;5102876;28;20047;-56
2021/12/31 11:17:41;;;;;;;2.38;2.08;;;10.10;83.90;;;;;;5122932;28;20096;-56
2021/12/31 11:20:09;;;;;;;4.40;2.45;;;10.10;83.90;;;;;;5121878;28;20387;-57
2021/12/31 11:22:36;;;;;;;2.78;2.03;;;10.00;83.90;;;;;;5120889;28;20040;-56
2021/12/31 11:25:17;;;;;;;3.78;2.45;;;10.10;84.00;;;;;;5127071;27;20512;-58
2021/12/31 11:27:47;;;;;;;3.97;2.60;;;10.20;84.00;;;;;;5165416;27;20077;-56
2021/12/31 11:30:37;;;;;;;3.63;2.00;;;10.10;83.90;;;;;;5177346;27;20390;-57
2021/12/31 11:33:17;;;;;;;4.47;2.85;;;10.10;83.90;;;;;;5158989;27;20537;-58
2021/12/31 11:36:05;;;;;;;3.45;2.40;;;10.10;84.00;;;;;;5177631;27;20042;-57
2021/12/31 11:38:30;;;;;;;4.53;2.30;;;10.10;84.00;;;;;;5166804;27;20049;-55
2021/12/31 11:41:07;;;;;;;4.30;2.15;;;10.10;84.10;;;;;;5167827;27;20042;-58
2021/12/31 11:43:38;;;;;;;2.60;2.08;;;10.10;84.00;;;;;;5167438;27;20525;-63
2021/12/31 11:46:19;;;;;;;9.60;4.10;;;10.10;84.10;;;;;;5167143;27;20126;-56
2021/12/31 11:48:46;;;;;;;4.20;3.30;;;10.20;86.90;;;;;;5170081;27;20113;-56
2021/12/31 11:51:28;;;;;;;11.95;3.88;;;10.30;86.10;;;;;;5177848;27;20442;-56
2021/12/31 11:54:00;;;;;;;5.68;3.05;;;10.20;85.80;;;;;;5167350;27;20038;-55
2021/12/31 11:56:43;;;;;;;7.40;3.67;;;10.20;85.60;;;;;;5161727;27;20129;-54
2021/12/31 11:59:09;;;;;;;6.13;3.20;;;10.30;85.50;;;;;;5159070;27;20088;-54
2021/12/31 12:01:43;;;;;;;5.95;3.42;;;10.20;85.50;;;;;;5158445;27;20062;-56
2021/12/31 12:04:35;;;;;;;12.70;3.47;;;10.20;85.40;;;;;;5160217;27;20088;-54
2021/12/31 12:07:01;;;;;;;4.10;3.10;;;10.20;85.30;;;;;;5163531;27;20040;-54
2021/12/31 12:09:36;;;;;;;5.70;3.38;;;10.20;85.30;;;;;;5164411;27;20046;-55
2021/12/31 12:12:13;;;;;;;6.25;3.65;;;10.20;85.20;;;;;;5167183;27;20030;-54
2021/12/31 12:14:48;;;;;;;4.20;2.53;;;10.20;85.20;;;;;;5164159;27;20490;-56
2021/12/31 12:17:37;;;;;;;4.07;3.25;;;10.20;85.10;;;;;;5170058;27;20401;-56
2021/12/31 12:20:02;;;;;;;3.95;2.50;;;10.10;85.00;;;;;;5156031;27;20038;-56
2021/12/31 12:22:44;;;;;;;5.40;2.47;;;10.20;85.10;;;;;;5165981;27;20068;-57
2021/12/31 12:25:22;;;;;;;4.10;2.58;;;10.10;85.00;;;;;;5176327;27;20085;-57
2021/12/31 12:27:50;;;;;;;6.00;2.80;;;10.10;84.90;;;;;;5177070;27;20046;-56
2021/12/31 12:30:16;;;;;;;3.85;2.58;;;10.10;84.90;;;;;;5176770;27;20046;-56
2021/12/31 12:35:27;;;;;;;5.22;2.55;;;10.20;84.90;;;;;;5143410;27;20043;-57
2021/12/31 12:38:19;;;;;;;5.32;2.70;;;10.20;84.90;;;;;;5155094;27;20482;-56
2021/12/31 12:40:52;;;;;;;3.83;2.58;;;10.10;84.70;;;;;;5136692;27;20046;-57
2021/12/31 12:43:22;;;;;;;4.18;2.55;;;10.10;84.70;;;;;;5136664;27;20503;-54
2021/12/31 12:45:53;;;;;;;3.78;2.58;;;10.10;84.70;;;;;;5155465;27;20041;-56
2021/12/31 12:48:34;;;;;;;4.68;2.58;;;10.10;84.70;;;;;;5161908;27;20050;-56
2021/12/31 12:51:01;;;;;;;3.38;2.30;;;10.20;84.70;;;;;;5155097;27;20527;-56
2021/12/31 12:53:28;;;;;;;3.08;2.22;;;10.10;84.60;;;;;;5155347;27;20035;-54
2021/12/31 12:56:10;;;;;;;5.35;2.20;;;10.10;84.60;;;;;;5155138;27;20038;-55
2021/12/31 12:58:49;;;;;;;5.07;2.10;;;10.20;84.60;;;;;;5136481;27;20071;-53
2021/12/31 13:01:15;;;;;;;3.10;2.30;;;10.10;84.60;;;;;;5155232;27;20087;-56
2021/12/31 13:03:53;;;;;;;2.75;1.80;;;10.20;84.60;;;;;;5155269;27;20043;-55
2021/12/31 13:06:22;;;;;;;2.50;2.00;;;10.10;84.50;;;;;;5155303;27;20057;-55